sensor_id;sensor_type;location;lat;lon;timestamp;pressure;altitude;pressure_sealevel;temperature;humidity
53659;BME280;41524;35.624;139.698;2023-02-16T00:00:15;102698.00;;;4.38;31.32
53659;BME280;41524;35.624;139.698;2023-02-16T00:05:23;102694.00;;;4.03;30.19
53659;BME280;41524;35.624;139.698;2023-02-16T00:10:13;102699.00;;;5.06;31.35
53659;BME280;41524;35.624;139.698;2023-02-16T00:15:17;102701.00;;;5.45;29.76
53659;BME280;41524;35.624;139.698;2023-02-16T00:20:17;102698.00;;;5.87;28.88
53659;BME280;41524;35.624;139.698;2023-02-16T00:25:12;102695.00;;;5.05;28.42
53659;BME280;41524;35.624;139.698;2023-02-16T00:30:16;102688.00;;;6.47;28.82
53659;BME280;41524;35.624;139.698;2023-02-16T00:35:15;102672.00;;;4.14;29.68
53659;BME280;41524;35.624;139.698;2023-02-16T00:40:13;102673.00;;;5.57;29.53
53659;BME280;41524;35.624;139.698;2023-02-16T00:45:18;102666.00;;;4.96;30.35
53659;BME280;41524;35.624;139.698;2023-02-16T00:50:16;102673.00;;;3.51;30.20
53659;BME280;41524;35.624;139.698;2023-02-16T00:55:12;102678.00;;;4.16;30.34
53659;BME280;41524;35.624;139.698;2023-02-16T01:00:24;102682.00;;;6.19;28.48
53659;BME280;41524;35.624;139.698;2023-02-16T01:05:11;102687.00;;;4.16;30.14
53659;BME280;41524;35.624;139.698;2023-02-16T01:10:16;102671.00;;;4.86;29.85
53659;BME280;41524;35.624;139.698;2023-02-16T01:15:14;102678.00;;;6.99;27.65
53659;BME280;41524;35.624;139.698;2023-02-16T01:20:16;102676.00;;;6.98;26.31
53659;BME280;41524;35.624;139.698;2023-02-16T01:25:16;102676.00;;;7.48;27.39
53659;BME280;41524;35.624;139.698;2023-02-16T01:30:16;102672.00;;;7.07;26.80
53659;BME280;41524;35.624;139.698;2023-02-16T01:35:12;102669.00;;;7.00;25.94
53659;BME280;41524;35.624;139.698;2023-02-16T01:40:22;102670.00;;;5.60;28.32
53659;BME280;41524;35.624;139.698;2023-02-16T01:45:16;102659.00;;;7.54;27.39
53659;BME280;41524;35.624;139.698;2023-02-16T01:50:21;102659.00;;;2.58;29.56
53659;BME280;41524;35.624;139.698;2023-02-16T01:55:21;102645.00;;;6.27;28.14
53659;BME280;41524;35.624;139.698;2023-02-16T02:05:22;102637.00;;;6.92;27.24
53659;BME280;41524;35.624;139.698;2023-02-16T02:10:23;102631.00;;;7.40;26.37
53659;BME280;41524;35.624;139.698;2023-02-16T02:15:13;102618.00;;;8.36;24.44
53659;BME280;41524;35.624;139.698;2023-02-16T02:20:21;102606.00;;;6.94;25.42
53659;BME280;41524;35.624;139.698;2023-02-16T02:26:15;102605.00;;;4.27;28.28
53659;BME280;41524;35.624;139.698;2023-02-16T02:30:31;102593.00;;;6.97;26.72
53659;BME280;41524;35.624;139.698;2023-02-16T02:35:28;102587.00;;;5.24;27.51
53659;BME280;41524;35.624;139.698;2023-02-16T02:40:16;102582.00;;;3.01;28.41
53659;BME280;41524;35.624;139.698;2023-02-16T02:45:16;102559.00;;;5.60;27.69
53659;BME280;41524;35.624;139.698;2023-02-16T02:50:46;102557.00;;;7.98;26.01
53659;BME280;41524;35.624;139.698;2023-02-16T02:55:12;102550.00;;;6.49;25.80
53659;BME280;41524;35.624;139.698;2023-02-16T03:00:14;102549.00;;;7.77;24.78
53659;BME280;41524;35.624;139.698;2023-02-16T03:05:13;102544.00;;;7.37;24.04
53659;BME280;41524;35.624;139.698;2023-02-16T03:10:14;102531.00;;;7.23;24.91
53659;BME280;41524;35.624;139.698;2023-02-16T03:15:11;102529.00;;;5.30;26.79
53659;BME280;41524;35.624;139.698;2023-02-16T03:20:18;102516.00;;;3.92;27.68
53659;BME280;41524;35.624;139.698;2023-02-16T03:25:11;102505.00;;;6.28;24.82
53659;BME280;41524;35.624;139.698;2023-02-16T03:30:17;102500.00;;;7.55;23.73
53659;BME280;41524;35.624;139.698;2023-02-16T03:35:11;102490.00;;;7.25;25.00
53659;BME280;41524;35.624;139.698;2023-02-16T03:40:17;102476.00;;;6.30;24.86
53659;BME280;41524;35.624;139.698;2023-02-16T03:45:11;102464.00;;;8.47;22.79
53659;BME280;41524;35.624;139.698;2023-02-16T03:50:12;102460.00;;;4.79;26.36
53659;BME280;41524;35.624;139.698;2023-02-16T03:55:10;102457.00;;;6.85;25.14
53659;BME280;41524;35.624;139.698;2023-02-16T04:00:12;102450.00;;;6.80;23.81
53659;BME280;41524;35.624;139.698;2023-02-16T04:05:15;102446.00;;;5.94;25.65
53659;BME280;41524;35.624;139.698;2023-02-16T04:10:11;102434.00;;;7.39;24.33
53659;BME280;41524;35.624;139.698;2023-02-16T04:15:18;102428.00;;;8.17;24.26
53659;BME280;41524;35.624;139.698;2023-02-16T04:20:18;102438.00;;;6.73;25.83
53659;BME280;41524;35.624;139.698;2023-02-16T04:25:19;102427.00;;;7.60;24.12
53659;BME280;41524;35.624;139.698;2023-02-16T04:30:15;102427.00;;;7.32;23.77
53659;BME280;41524;35.624;139.698;2023-02-16T04:35:11;102427.00;;;6.98;24.39
53659;BME280;41524;35.624;139.698;2023-02-16T04:40:13;102421.00;;;7.85;23.36
53659;BME280;41524;35.624;139.698;2023-02-16T04:45:11;102421.00;;;8.63;22.99
53659;BME280;41524;35.624;139.698;2023-02-16T04:50:16;102419.00;;;9.75;21.02
53659;BME280;41524;35.624;139.698;2023-02-16T04:55:11;102411.00;;;9.77;21.63
53659;BME280;41524;35.624;139.698;2023-02-16T05:00:12;102404.00;;;9.09;21.12
53659;BME280;41524;35.624;139.698;2023-02-16T05:05:10;102416.00;;;8.72;23.05
53659;BME280;41524;35.624;139.698;2023-02-16T05:10:11;102417.00;;;7.19;24.72
53659;BME280;41524;35.624;139.698;2023-02-16T05:15:15;102409.00;;;8.69;23.85
53659;BME280;41524;35.624;139.698;2023-02-16T05:20:21;102406.00;;;9.35;22.93
53659;BME280;41524;35.624;139.698;2023-02-16T05:25:12;102409.00;;;8.21;23.10
53659;BME280;41524;35.624;139.698;2023-02-16T05:30:14;102411.00;;;8.41;23.07
53659;BME280;41524;35.624;139.698;2023-02-16T05:35:16;102421.00;;;8.05;23.60
53659;BME280;41524;35.624;139.698;2023-02-16T05:40:11;102413.00;;;7.86;23.26
53659;BME280;41524;35.624;139.698;2023-02-16T05:45:16;102414.00;;;7.57;23.49
53659;BME280;41524;35.624;139.698;2023-02-16T05:50:15;102411.00;;;6.92;24.46
53659;BME280;41524;35.624;139.698;2023-02-16T05:55:12;102417.00;;;6.80;23.99
53659;BME280;41524;35.624;139.698;2023-02-16T06:00:12;102420.00;;;6.40;24.17
53659;BME280;41524;35.624;139.698;2023-02-16T06:05:11;102425.00;;;6.96;24.36
53659;BME280;41524;35.624;139.698;2023-02-16T06:15:12;102440.00;;;6.90;23.66
53659;BME280;41524;35.624;139.698;2023-02-16T06:20:11;102435.00;;;8.01;22.72
53659;BME280;41524;35.624;139.698;2023-02-16T06:25:11;102443.00;;;6.08;23.74
53659;BME280;41524;35.624;139.698;2023-02-16T06:30:21;102438.00;;;8.88;21.90
53659;BME280;41524;35.624;139.698;2023-02-16T06:35:11;102438.00;;;8.62;21.70
53659;BME280;41524;35.624;139.698;2023-02-16T06:40:13;102442.00;;;14.89;17.11
53659;BME280;41524;35.624;139.698;2023-02-16T06:45:11;102442.00;;;14.74;15.95
53659;BME280;41524;35.624;139.698;2023-02-16T06:50:11;102439.00;;;17.61;14.29
53659;BME280;41524;35.624;139.698;2023-02-16T06:55:11;102447.00;;;13.72;15.47
53659;BME280;41524;35.624;139.698;2023-02-16T07:00:17;102445.00;;;18.36;13.01
53659;BME280;41524;35.624;139.698;2023-02-16T07:05:15;102462.00;;;15.42;14.21
53659;BME280;41524;35.624;139.698;2023-02-16T07:10:10;102462.00;;;15.90;14.06
53659;BME280;41524;35.624;139.698;2023-02-16T07:15:16;102465.00;;;10.10;17.50
53659;BME280;41524;35.624;139.698;2023-02-16T07:20:16;102470.00;;;3.74;23.14
53659;BME280;41524;35.624;139.698;2023-02-16T07:25:12;102474.00;;;6.52;21.29
53659;BME280;41524;35.624;139.698;2023-02-16T07:30:12;102472.00;;;6.80;21.69
53659;BME280;41524;35.624;139.698;2023-02-16T07:35:12;102481.00;;;5.62;22.63
53659;BME280;41524;35.624;139.698;2023-02-16T07:40:18;102490.00;;;6.31;22.32
53659;BME280;41524;35.624;139.698;2023-02-16T07:45:10;102494.00;;;6.56;22.47
53659;BME280;41524;35.624;139.698;2023-02-16T07:50:12;102503.00;;;5.97;23.09
53659;BME280;41524;35.624;139.698;2023-02-16T07:55:12;102502.00;;;6.90;22.75
53659;BME280;41524;35.624;139.698;2023-02-16T08:00:12;102504.00;;;5.94;23.57
53659;BME280;41524;35.624;139.698;2023-02-16T08:05:11;102506.00;;;5.74;23.13
53659;BME280;41524;35.624;139.698;2023-02-16T08:10:12;102506.00;;;5.75;23.28
53659;BME280;41524;35.624;139.698;2023-02-16T08:15:13;102511.00;;;5.99;23.39
53659;BME280;41524;35.624;139.698;2023-02-16T08:20:21;102519.00;;;6.15;23.81
53659;BME280;41524;35.624;139.698;2023-02-16T08:25:11;102521.00;;;6.39;23.54
53659;BME280;41524;35.624;139.698;2023-02-16T08:30:17;102523.00;;;6.29;23.37
53659;BME280;41524;35.624;139.698;2023-02-16T08:35:10;102523.00;;;6.80;22.60
53659;BME280;41524;35.624;139.698;2023-02-16T08:40:13;102527.00;;;6.43;23.96
53659;BME280;41524;35.624;139.698;2023-02-16T08:45:14;102530.00;;;6.13;23.55
53659;BME280;41524;35.624;139.698;2023-02-16T08:50:11;102532.00;;;6.75;23.39
53659;BME280;41524;35.624;139.698;2023-02-16T08:55:15;102533.00;;;6.20;24.21
53659;BME280;41524;35.624;139.698;2023-02-16T09:00:14;102528.00;;;6.34;24.79
53659;BME280;41524;35.624;139.698;2023-02-16T09:05:10;102529.00;;;6.06;25.24
53659;BME280;41524;35.624;139.698;2023-02-16T09:10:15;102533.00;;;6.34;25.68
53659;BME280;41524;35.624;139.698;2023-02-16T09:15:15;102542.00;;;5.71;26.95
53659;BME280;41524;35.624;139.698;2023-02-16T09:20:12;102541.00;;;6.36;26.42
53659;BME280;41524;35.624;139.698;2023-02-16T09:25:11;102541.00;;;6.93;26.97
53659;BME280;41524;35.624;139.698;2023-02-16T09:30:11;102549.00;;;6.35;26.64
53659;BME280;41524;35.624;139.698;2023-02-16T09:35:15;102550.00;;;5.97;28.58
53659;BME280;41524;35.624;139.698;2023-02-16T09:40:14;102556.00;;;5.64;28.00
53659;BME280;41524;35.624;139.698;2023-02-16T09:45:12;102564.00;;;5.21;28.73
53659;BME280;41524;35.624;139.698;2023-02-16T09:50:16;102566.00;;;4.98;29.34
53659;BME280;41524;35.624;139.698;2023-02-16T09:55:15;102573.00;;;3.96;38.66
53659;BME280;41524;35.624;139.698;2023-02-16T10:00:24;102573.00;;;4.29;38.37
53659;BME280;41524;35.624;139.698;2023-02-16T10:05:20;102580.00;;;3.79;39.84
53659;BME280;41524;35.624;139.698;2023-02-16T10:10:15;102574.00;;;4.10;39.99
53659;BME280;41524;35.624;139.698;2023-02-16T10:15:20;102573.00;;;3.60;41.50
53659;BME280;41524;35.624;139.698;2023-02-16T10:20:13;102581.00;;;4.02;42.86
53659;BME280;41524;35.624;139.698;2023-02-16T10:25:14;102580.00;;;3.47;42.94
53659;BME280;41524;35.624;139.698;2023-02-16T10:30:14;102588.00;;;3.36;42.62
53659;BME280;41524;35.624;139.698;2023-02-16T10:35:13;102579.00;;;4.54;40.37
53659;BME280;41524;35.624;139.698;2023-02-16T10:40:25;102577.00;;;3.47;42.48
53659;BME280;41524;35.624;139.698;2023-02-16T10:45:20;102591.00;;;3.69;41.63
53659;BME280;41524;35.624;139.698;2023-02-16T10:50:25;102600.00;;;4.34;40.42
53659;BME280;41524;35.624;139.698;2023-02-16T10:55:12;102604.00;;;4.61;40.33
53659;BME280;41524;35.624;139.698;2023-02-16T11:00:20;102605.00;;;4.67;40.51
53659;BME280;41524;35.624;139.698;2023-02-16T11:05:35;102606.00;;;4.08;41.84
53659;BME280;41524;35.624;139.698;2023-02-16T11:10:33;102611.00;;;4.46;42.52
53659;BME280;41524;35.624;139.698;2023-02-16T11:15:23;102619.00;;;3.37;43.33
53659;BME280;41524;35.624;139.698;2023-02-16T11:20:26;102609.00;;;4.35;42.49
53659;BME280;41524;35.624;139.698;2023-02-16T11:25:27;102605.00;;;4.40;42.15
53659;BME280;41524;35.624;139.698;2023-02-16T11:30:19;102612.00;;;4.31;42.83
53659;BME280;41524;35.624;139.698;2023-02-16T11:35:14;102619.00;;;5.18;42.10
53659;BME280;41524;35.624;139.698;2023-02-16T11:40:22;102629.00;;;4.30;42.59
53659;BME280;41524;35.624;139.698;2023-02-16T11:45:24;102624.00;;;4.89;41.86
53659;BME280;41524;35.624;139.698;2023-02-16T11:50:23;102626.00;;;4.65;42.39
53659;BME280;41524;35.624;139.698;2023-02-16T11:55:25;102628.00;;;4.78;42.47
53659;BME280;41524;35.624;139.698;2023-02-16T12:00:18;102626.00;;;4.49;42.66
53659;BME280;41524;35.624;139.698;2023-02-16T12:05:25;102621.00;;;4.61;42.65
53659;BME280;41524;35.624;139.698;2023-02-16T12:10:27;102628.00;;;5.19;41.74
53659;BME280;41524;35.624;139.698;2023-02-16T12:15:19;102624.00;;;4.43;42.57
53659;BME280;41524;35.624;139.698;2023-02-16T12:20:34;102624.00;;;2.77;46.83
53659;BME280;41524;35.624;139.698;2023-02-16T12:25:25;102618.00;;;4.69;43.63
53659;BME280;41524;35.624;139.698;2023-02-16T12:30:26;102614.00;;;4.73;43.74
53659;BME280;41524;35.624;139.698;2023-02-16T12:35:29;102608.00;;;4.82;43.63
53659;BME280;41524;35.624;139.698;2023-02-16T12:40:25;102610.00;;;4.25;45.16
53659;BME280;41524;35.624;139.698;2023-02-16T12:45:19;102616.00;;;4.06;45.90
53659;BME280;41524;35.624;139.698;2023-02-16T12:50:18;102615.00;;;4.45;45.59
53659;BME280;41524;35.624;139.698;2023-02-16T12:55:20;102608.00;;;3.00;47.87
53659;BME280;41524;35.624;139.698;2023-02-16T13:05:13;102606.00;;;3.69;45.86
53659;BME280;41524;35.624;139.698;2023-02-16T13:10:19;102603.00;;;2.66;48.65
53659;BME280;41524;35.624;139.698;2023-02-16T13:15:20;102603.00;;;3.36;46.65
53659;BME280;41524;35.624;139.698;2023-02-16T13:20:16;102596.00;;;4.09;45.29
53659;BME280;41524;35.624;139.698;2023-02-16T13:25:29;102597.00;;;4.59;44.08
53659;BME280;41524;35.624;139.698;2023-02-16T13:31:28;102607.00;;;3.63;46.24
53659;BME280;41524;35.624;139.698;2023-02-16T13:35:22;102605.00;;;4.29;46.30
53659;BME280;41524;35.624;139.698;2023-02-16T13:40:23;102605.00;;;4.67;45.96
53659;BME280;41524;35.624;139.698;2023-02-16T13:45:19;102612.00;;;5.66;43.10
53659;BME280;41524;35.624;139.698;2023-02-16T13:50:28;102612.00;;;5.45;44.97
53659;BME280;41524;35.624;139.698;2023-02-16T13:55:24;102609.00;;;4.32;47.29
53659;BME280;41524;35.624;139.698;2023-02-16T14:00:27;102602.00;;;4.22;47.88
53659;BME280;41524;35.624;139.698;2023-02-16T14:05:18;102601.00;;;5.97;43.38
53659;BME280;41524;35.624;139.698;2023-02-16T14:10:14;102607.00;;;4.53;46.00
53659;BME280;41524;35.624;139.698;2023-02-16T14:15:20;102606.00;;;5.29;43.54
53659;BME280;41524;35.624;139.698;2023-02-16T14:20:28;102602.00;;;4.82;44.47
53659;BME280;41524;35.624;139.698;2023-02-16T14:25:38;102596.00;;;5.29;44.75
53659;BME280;41524;35.624;139.698;2023-02-16T14:30:20;102604.00;;;5.08;43.94
53659;BME280;41524;35.624;139.698;2023-02-16T14:35:17;102602.00;;;5.45;42.31
53659;BME280;41524;35.624;139.698;2023-02-16T14:40:17;102599.00;;;5.57;42.59
53659;BME280;41524;35.624;139.698;2023-02-16T14:46:34;102592.00;;;2.64;49.04
53659;BME280;41524;35.624;139.698;2023-02-16T14:50:34;102589.00;;;3.94;47.23
53659;BME280;41524;35.624;139.698;2023-02-16T14:55:40;102584.00;;;4.60;45.88
53659;BME280;41524;35.624;139.698;2023-02-16T15:00:17;102582.00;;;5.08;44.16
53659;BME280;41524;35.624;139.698;2023-02-16T15:05:20;102571.00;;;4.74;45.05
53659;BME280;41524;35.624;139.698;2023-02-16T15:10:12;102563.00;;;5.35;42.98
53659;BME280;41524;35.624;139.698;2023-02-16T15:15:18;102555.00;;;4.68;43.58
53659;BME280;41524;35.624;139.698;2023-02-16T15:20:26;102556.00;;;5.16;42.95
53659;BME280;41524;35.624;139.698;2023-02-16T15:25:24;102553.00;;;4.73;42.91
53659;BME280;41524;35.624;139.698;2023-02-16T15:30:28;102560.00;;;3.30;44.01
53659;BME280;41524;35.624;139.698;2023-02-16T15:35:22;102560.00;;;3.78;43.11
53659;BME280;41524;35.624;139.698;2023-02-16T15:40:23;102544.00;;;4.02;42.35
53659;BME280;41524;35.624;139.698;2023-02-16T15:45:29;102548.00;;;3.88;42.49
53659;BME280;41524;35.624;139.698;2023-02-16T15:50:17;102554.00;;;3.33;43.17
53659;BME280;41524;35.624;139.698;2023-02-16T15:55:11;102556.00;;;3.12;44.02
53659;BME280;41524;35.624;139.698;2023-02-16T16:00:17;102535.00;;;3.71;42.84
53659;BME280;41524;35.624;139.698;2023-02-16T16:05:23;102545.00;;;2.67;43.94
53659;BME280;41524;35.624;139.698;2023-02-16T16:10:15;102552.00;;;2.96;43.18
53659;BME280;41524;35.624;139.698;2023-02-16T16:15:18;102539.00;;;2.72;43.63
53659;BME280;41524;35.624;139.698;2023-02-16T16:20:26;102540.00;;;3.15;43.00
53659;BME280;41524;35.624;139.698;2023-02-16T16:30:30;102552.00;;;2.41;44.13
53659;BME280;41524;35.624;139.698;2023-02-16T16:35:37;102561.00;;;2.38;43.99
53659;BME280;41524;35.624;139.698;2023-02-16T16:40:21;102577.00;;;2.60;43.62
53659;BME280;41524;35.624;139.698;2023-02-16T16:45:36;102589.00;;;2.24;43.95
53659;BME280;41524;35.624;139.698;2023-02-16T16:50:32;102592.00;;;1.65;44.74
53659;BME280;41524;35.624;139.698;2023-02-16T16:55:22;102594.00;;;2.15;44.09
53659;BME280;41524;35.624;139.698;2023-02-16T17:00:12;102591.00;;;2.31;43.89
53659;BME280;41524;35.624;139.698;2023-02-16T17:05:15;102578.00;;;2.49;43.90
53659;BME280;41524;35.624;139.698;2023-02-16T17:10:18;102588.00;;;1.35;45.41
53659;BME280;41524;35.624;139.698;2023-02-16T17:15:26;102582.00;;;1.16;46.34
53659;BME280;41524;35.624;139.698;2023-02-16T17:20:13;102574.00;;;2.46;44.38
53659;BME280;41524;35.624;139.698;2023-02-16T17:25:11;102564.00;;;1.86;44.93
53659;BME280;41524;35.624;139.698;2023-02-16T17:30:12;102569.00;;;2.43;44.26
53659;BME280;41524;35.624;139.698;2023-02-16T17:35:16;102566.00;;;2.16;44.46
53659;BME280;41524;35.624;139.698;2023-02-16T17:40:14;102556.00;;;1.93;44.86
53659;BME280;41524;35.624;139.698;2023-02-16T17:45:11;102561.00;;;2.02;44.03
53659;BME280;41524;35.624;139.698;2023-02-16T17:50:14;102555.00;;;1.91;44.10
53659;BME280;41524;35.624;139.698;2023-02-16T17:55:11;102551.00;;;2.20;43.14
53659;BME280;41524;35.624;139.698;2023-02-16T18:00:18;102540.00;;;1.75;43.24
53659;BME280;41524;35.624;139.698;2023-02-16T18:05:12;102535.00;;;2.04;42.43
53659;BME280;41524;35.624;139.698;2023-02-16T18:10:18;102527.00;;;2.52;41.94
53659;BME280;41524;35.624;139.698;2023-02-16T18:15:11;102530.00;;;2.08;42.29
53659;BME280;41524;35.624;139.698;2023-02-16T18:20:14;102527.00;;;2.67;40.92
53659;BME280;41524;35.624;139.698;2023-02-16T18:25:10;102526.00;;;2.29;39.69
53659;BME280;41524;35.624;139.698;2023-02-16T18:30:12;102522.00;;;2.36;39.37
53659;BME280;41524;35.624;139.698;2023-02-16T18:35:12;102516.00;;;2.66;38.49
53659;BME280;41524;35.624;139.698;2023-02-16T18:40:13;102514.00;;;1.96;39.09
53659;BME280;41524;35.624;139.698;2023-02-16T18:45:13;102515.00;;;1.87;38.69
53659;BME280;41524;35.624;139.698;2023-02-16T18:50:12;102531.00;;;2.18;38.39
53659;BME280;41524;35.624;139.698;2023-02-16T18:55:12;102531.00;;;1.41;39.91
53659;BME280;41524;35.624;139.698;2023-02-16T19:00:20;102541.00;;;1.20;40.16
53659;BME280;41524;35.624;139.698;2023-02-16T19:05:12;102534.00;;;1.01;40.56
53659;BME280;41524;35.624;139.698;2023-02-16T19:10:11;102524.00;;;0.94;40.28
53659;BME280;41524;35.624;139.698;2023-02-16T19:15:11;102518.00;;;1.65;39.24
53659;BME280;41524;35.624;139.698;2023-02-16T19:20:12;102523.00;;;1.00;39.51
53659;BME280;41524;35.624;139.698;2023-02-16T19:25:11;102519.00;;;2.20;38.17
53659;BME280;41524;35.624;139.698;2023-02-16T19:30:11;102520.00;;;2.13;38.28
53659;BME280;41524;35.624;139.698;2023-02-16T19:35:12;102529.00;;;2.73;36.56
53659;BME280;41524;35.624;139.698;2023-02-16T19:40:12;102530.00;;;1.94;37.11
53659;BME280;41524;35.624;139.698;2023-02-16T19:45:16;102528.00;;;2.07;36.79
53659;BME280;41524;35.624;139.698;2023-02-16T19:50:11;102522.00;;;1.81;36.88
53659;BME280;41524;35.624;139.698;2023-02-16T19:55:12;102525.00;;;1.83;36.88
53659;BME280;41524;35.624;139.698;2023-02-16T20:00:15;102524.00;;;1.81;37.07
53659;BME280;41524;35.624;139.698;2023-02-16T20:05:10;102521.00;;;1.74;36.94
53659;BME280;41524;35.624;139.698;2023-02-16T20:10:12;102519.00;;;1.39;37.48
53659;BME280;41524;35.624;139.698;2023-02-16T20:15:11;102518.00;;;1.52;37.45
53659;BME280;41524;35.624;139.698;2023-02-16T20:20:11;102514.00;;;1.85;37.23
53659;BME280;41524;35.624;139.698;2023-02-16T20:25:12;102519.00;;;2.01;37.16
53659;BME280;41524;35.624;139.698;2023-02-16T20:30:20;102516.00;;;1.89;37.15
53659;BME280;41524;35.624;139.698;2023-02-16T20:35:11;102522.00;;;1.55;37.63
53659;BME280;41524;35.624;139.698;2023-02-16T20:40:12;102521.00;;;1.75;37.62
53659;BME280;41524;35.624;139.698;2023-02-16T20:45:15;102526.00;;;1.04;38.14
53659;BME280;41524;35.624;139.698;2023-02-16T20:50:15;102522.00;;;1.31;37.95
53659;BME280;41524;35.624;139.698;2023-02-16T20:55:11;102534.00;;;1.89;37.06
53659;BME280;41524;35.624;139.698;2023-02-16T21:00:20;102534.00;;;1.72;37.51
53659;BME280;41524;35.624;139.698;2023-02-16T21:05:11;102542.00;;;1.16;38.02
53659;BME280;41524;35.624;139.698;2023-02-16T21:10:16;102545.00;;;0.18;39.32
53659;BME280;41524;35.624;139.698;2023-02-16T21:15:11;102550.00;;;0.89;38.60
53659;BME280;41524;35.624;139.698;2023-02-16T21:20:15;102559.00;;;0.60;38.86
53659;BME280;41524;35.624;139.698;2023-02-16T21:25:13;102555.00;;;1.31;38.38
53659;BME280;41524;35.624;139.698;2023-02-16T21:30:16;102562.00;;;0.62;39.63
53659;BME280;41524;35.624;139.698;2023-02-16T21:35:16;102562.00;;;0.28;40.11
53659;BME280;41524;35.624;139.698;2023-02-16T21:40:13;102563.00;;;0.90;39.30
53659;BME280;41524;35.624;139.698;2023-02-16T21:45:15;102578.00;;;1.28;38.40
53659;BME280;41524;35.624;139.698;2023-02-16T21:50:11;102580.00;;;0.73;39.59
53659;BME280;41524;35.624;139.698;2023-02-16T21:55:13;102589.00;;;0.56;38.96
53659;BME280;41524;35.624;139.698;2023-02-16T22:00:16;102600.00;;;0.35;39.50
53659;BME280;41524;35.624;139.698;2023-02-16T22:05:13;102616.00;;;1.38;38.58
53659;BME280;41524;35.624;139.698;2023-02-16T22:10:11;102609.00;;;1.62;40.07
53659;BME280;41524;35.624;139.698;2023-02-16T22:15:15;102613.00;;;0.89;39.94
53659;BME280;41524;35.624;139.698;2023-02-16T22:20:12;102607.00;;;2.21;41.44
53659;BME280;41524;35.624;139.698;2023-02-16T22:25:11;102614.00;;;1.01;40.76
53659;BME280;41524;35.624;139.698;2023-02-16T22:30:16;102607.00;;;1.19;40.69
53659;BME280;41524;35.624;139.698;2023-02-16T22:35:11;102616.00;;;1.40;41.18
53659;BME280;41524;35.624;139.698;2023-02-16T22:40:15;102608.00;;;1.68;43.61
53659;BME280;41524;35.624;139.698;2023-02-16T22:45:21;102608.00;;;1.87;40.87
53659;BME280;41524;35.624;139.698;2023-02-16T22:50:22;102611.00;;;1.36;42.98
53659;BME280;41524;35.624;139.698;2023-02-16T22:55:12;102620.00;;;1.67;40.63
53659;BME280;41524;35.624;139.698;2023-02-16T23:00:15;102626.00;;;2.70;38.04
53659;BME280;41524;35.624;139.698;2023-02-16T23:05:14;102635.00;;;2.11;38.00
53659;BME280;41524;35.624;139.698;2023-02-16T23:10:11;102632.00;;;1.26;40.10
53659;BME280;41524;35.624;139.698;2023-02-16T23:15:11;102632.00;;;1.60;38.75
53659;BME280;41524;35.624;139.698;2023-02-16T23:20:21;102633.00;;;2.45;37.16
53659;BME280;41524;35.624;139.698;2023-02-16T23:25:11;102628.00;;;2.38;38.59
53659;BME280;41524;35.624;139.698;2023-02-16T23:30:15;102628.00;;;3.49;37.77
53659;BME280;41524;35.624;139.698;2023-02-16T23:35:11;102625.00;;;6.24;35.98
53659;BME280;41524;35.624;139.698;2023-02-16T23:40:15;102609.00;;;9.63;30.35
53659;BME280;41524;35.624;139.698;2023-02-16T23:45:16;102612.00;;;6.26;33.00
53659;BME280;41524;35.624;139.698;2023-02-16T23:50:17;102610.00;;;5.04;33.16
53659;BME280;41524;35.624;139.698;2023-02-16T23:55:16;102607.00;;;7.06;31.71
